createdAt,value
2017-10-16T00:00:45.350Z,0
2017-10-16T00:01:48.073Z,0
2017-10-16T00:02:50.455Z,0
2017-10-16T00:03:53.174Z,0
2017-10-16T00:04:55.553Z,0
2017-10-16T00:05:57.940Z,0
2017-10-16T00:07:00.322Z,0
2017-10-16T00:08:02.689Z,0
2017-10-16T00:09:05.074Z,0
2017-10-16T00:10:07.459Z,0
2017-10-16T00:11:09.840Z,0
2017-10-16T00:12:12.223Z,0
2017-10-16T00:13:14.944Z,0
2017-10-16T00:14:17.318Z,0
2017-10-16T00:15:19.714Z,0
2017-10-16T00:16:22.088Z,0
2017-10-16T00:17:24.465Z,0
2017-10-16T00:18:26.845Z,0
2017-10-16T00:19:29.228Z,0
2017-10-16T00:20:31.609Z,0
2017-10-16T00:21:33.992Z,0
2017-10-16T00:22:36.716Z,0
2017-10-16T00:23:39.090Z,0
2017-10-16T00:24:41.820Z,0
2017-10-16T00:25:44.199Z,0
2017-10-16T00:26:46.590Z,0
2017-10-16T00:27:49.310Z,0
2017-10-16T00:28:51.692Z,0
2017-10-16T00:29:54.081Z,0
2017-10-16T00:30:56.462Z,0
2017-10-16T00:31:58.851Z,0
2017-10-16T00:33:01.572Z,0
2017-10-16T00:34:03.955Z,0
2017-10-16T00:35:06.336Z,0
2017-10-16T00:36:08.712Z,0
2017-10-16T00:37:11.096Z,0
2017-10-16T00:38:13.481Z,0
2017-10-16T00:39:16.234Z,0
2017-10-16T00:40:18.625Z,0
2017-10-16T00:41:21.002Z,0
2017-10-16T00:42:23.395Z,0
2017-10-16T00:43:25.762Z,0
2017-10-16T00:44:28.142Z,0
2017-10-16T00:45:30.517Z,0
2017-10-16T00:46:32.904Z,0
2017-10-16T00:47:35.269Z,0
2017-10-16T00:48:37.659Z,0
2017-10-16T00:49:40.042Z,0
2017-10-16T00:50:42.416Z,0
2017-10-16T00:51:44.801Z,0
2017-10-16T00:52:47.176Z,0
2017-10-16T00:53:49.560Z,0
2017-10-16T00:54:52.296Z,0
2017-10-16T00:55:54.672Z,0
2017-10-16T00:56:57.047Z,0
2017-10-16T00:57:59.437Z,0
2017-10-16T00:59:01.808Z,0
2017-10-16T01:00:04.532Z,0
2017-10-16T01:01:06.915Z,0
2017-10-16T01:02:09.296Z,0
2017-10-16T01:03:11.661Z,0
2017-10-16T01:04:14.050Z,0
2017-10-16T01:05:16.436Z,0
2017-10-16T01:06:18.825Z,0
2017-10-16T01:07:21.553Z,0
2017-10-16T01:08:23.932Z,0
2017-10-16T01:09:26.318Z,0
2017-10-16T01:10:28.697Z,0
2017-10-16T01:11:31.072Z,0
2017-10-16T01:12:33.806Z,0
2017-10-16T01:13:36.195Z,0
2017-10-16T01:14:38.584Z,0
2017-10-16T01:15:40.963Z,0
2017-10-16T01:16:43.346Z,0
2017-10-16T01:17:45.719Z,0
2017-10-16T01:18:48.447Z,0
2017-10-16T01:19:50.819Z,0
2017-10-16T01:20:53.207Z,0
2017-10-16T01:21:55.575Z,0
2017-10-16T01:22:57.951Z,0
2017-10-16T01:24:00.349Z,0
2017-10-16T01:25:02.725Z,0
2017-10-16T01:26:05.137Z,0
2017-10-16T01:27:07.476Z,0
2017-10-16T01:28:09.855Z,0
2017-10-16T01:29:12.234Z,0
2017-10-16T01:30:14.618Z,0
2017-10-16T01:31:16.988Z,0
2017-10-16T01:32:19.375Z,0
2017-10-16T01:33:21.757Z,0
2017-10-16T01:34:24.139Z,0
2017-10-16T01:35:26.516Z,0
2017-10-16T01:36:28.908Z,0
2017-10-16T01:37:31.637Z,0
2017-10-16T01:38:34.015Z,0
2017-10-16T01:39:36.744Z,0
2017-10-16T01:40:39.119Z,0
2017-10-16T01:41:41.497Z,0
2017-10-16T01:42:44.224Z,0
2017-10-16T01:43:46.601Z,0
2017-10-16T01:44:48.974Z,0
2017-10-16T01:45:51.368Z,0
2017-10-16T01:46:53.733Z,0
2017-10-16T01:47:56.112Z,0
2017-10-16T01:48:58.496Z,0
2017-10-16T01:50:00.871Z,0
2017-10-16T01:51:03.257Z,0
2017-10-16T01:52:05.632Z,0
2017-10-16T01:53:08.012Z,0
2017-10-16T01:54:10.387Z,0
2017-10-16T01:55:12.771Z,0
2017-10-16T01:56:15.146Z,0
2017-10-16T01:57:17.530Z,0
2017-10-16T01:58:19.908Z,0
2017-10-16T01:59:22.285Z,0
2017-10-16T02:00:24.669Z,0
2017-10-16T02:01:27.054Z,0
2017-10-16T02:02:29.420Z,0
2017-10-16T02:03:32.172Z,0
2017-10-16T02:04:34.553Z,0
2017-10-16T02:05:36.926Z,0
2017-10-16T02:06:39.315Z,0
2017-10-16T02:07:41.695Z,0
2017-10-16T02:08:44.074Z,0
2017-10-16T02:09:46.462Z,0
2017-10-16T02:10:49.193Z,0
2017-10-16T02:11:51.562Z,0
2017-10-16T02:12:53.943Z,0
2017-10-16T02:13:56.317Z,0
2017-10-16T02:14:58.701Z,0
2017-10-16T02:16:01.075Z,0
2017-10-16T02:17:03.462Z,0
2017-10-16T02:18:05.840Z,0
2017-10-16T02:19:08.219Z,0
2017-10-16T02:20:10.607Z,0
2017-10-16T02:21:12.972Z,0
2017-10-16T02:22:15.357Z,0
2017-10-16T02:23:18.094Z,0
2017-10-16T02:24:20.471Z,0
2017-10-16T02:25:22.844Z,0
2017-10-16T02:26:25.226Z,0
2017-10-16T02:27:27.962Z,0
2017-10-16T02:28:30.348Z,0
2017-10-16T02:29:32.720Z,0
2017-10-16T02:30:35.093Z,0
2017-10-16T02:31:37.475Z,0
2017-10-16T02:32:39.851Z,0
2017-10-16T02:33:42.232Z,0
2017-10-16T02:34:44.616Z,0
2017-10-16T02:35:47.000Z,0
2017-10-16T02:36:49.383Z,0
2017-10-16T02:37:51.761Z,0
2017-10-16T02:38:54.139Z,0
2017-10-16T02:39:56.515Z,0
2017-10-16T02:40:59.643Z,0
2017-10-16T02:42:02.024Z,0
2017-10-16T02:43:04.408Z,0
2017-10-16T02:44:06.782Z,0
2017-10-16T02:45:09.161Z,0
2017-10-16T02:46:11.525Z,0
2017-10-16T02:47:13.909Z,0
2017-10-16T02:48:16.287Z,0
2017-10-16T02:49:18.666Z,0
2017-10-16T02:50:21.046Z,0
2017-10-16T02:51:23.424Z,0
2017-10-16T02:52:25.802Z,0
2017-10-16T02:53:28.187Z,0
2017-10-16T02:54:30.552Z,0
2017-10-16T02:55:33.277Z,0
2017-10-16T02:56:36.015Z,0
2017-10-16T02:57:38.386Z,0
2017-10-16T02:58:40.762Z,0
2017-10-16T02:59:43.135Z,0
2017-10-16T03:00:45.530Z,0
2017-10-16T03:01:48.245Z,0
2017-10-16T03:02:50.976Z,0
2017-10-16T03:03:53.364Z,0
2017-10-16T03:04:55.737Z,0
2017-10-16T03:05:58.474Z,0
2017-10-16T03:07:00.850Z,0
2017-10-16T03:08:03.218Z,0
2017-10-16T03:09:05.600Z,0
2017-10-16T03:10:07.975Z,0
2017-10-16T03:11:10.356Z,0
2017-10-16T03:12:13.082Z,0
2017-10-16T03:13:15.457Z,0
2017-10-16T03:14:17.848Z,0
2017-10-16T03:15:20.577Z,0
2017-10-16T03:16:23.304Z,0
2017-10-16T03:17:25.688Z,0
2017-10-16T03:18:28.062Z,0
2017-10-16T03:19:30.450Z,0
2017-10-16T03:20:32.822Z,0
2017-10-16T03:21:35.202Z,0
2017-10-16T03:22:37.575Z,0
2017-10-16T03:23:40.310Z,0
2017-10-16T03:24:42.685Z,0
2017-10-16T03:25:45.057Z,0
2017-10-16T03:26:47.430Z,0
2017-10-16T03:27:49.822Z,0
2017-10-16T03:28:52.204Z,0
2017-10-16T03:29:54.576Z,0
2017-10-16T03:30:56.958Z,0
2017-10-16T03:31:59.338Z,0
2017-10-16T03:33:01.708Z,0
2017-10-16T03:34:04.076Z,0
2017-10-16T03:35:06.470Z,0
2017-10-16T03:36:08.843Z,0
2017-10-16T03:37:11.221Z,0
2017-10-16T03:38:13.604Z,0
2017-10-16T03:39:15.974Z,0
2017-10-16T03:40:18.355Z,0
2017-10-16T03:41:20.737Z,0
2017-10-16T03:42:23.105Z,0
2017-10-16T03:43:25.487Z,0
2017-10-16T03:44:27.879Z,0
2017-10-16T03:45:30.607Z,0
2017-10-16T03:46:33.710Z,0
2017-10-16T03:47:36.079Z,0
2017-10-16T03:48:38.460Z,0
2017-10-16T03:49:40.845Z,0
2017-10-16T03:50:43.223Z,0
2017-10-16T03:51:45.945Z,0
2017-10-16T03:52:48.705Z,0
2017-10-16T03:53:51.079Z,0
2017-10-16T03:54:53.469Z,0
2017-10-16T03:55:56.202Z,0
2017-10-16T03:56:58.577Z,0
2017-10-16T03:58:01.304Z,0
2017-10-16T03:59:03.691Z,0
2017-10-16T04:00:06.064Z,0
2017-10-16T04:01:08.456Z,0
2017-10-16T04:02:10.825Z,0
2017-10-16T04:03:13.202Z,0
2017-10-16T04:04:15.584Z,0
2017-10-16T04:05:17.959Z,0
2017-10-16T04:06:20.322Z,0
2017-10-16T04:07:22.718Z,0
2017-10-16T04:08:25.078Z,0
2017-10-16T04:09:27.462Z,0
2017-10-16T04:10:29.844Z,0
2017-10-16T04:11:32.216Z,0
2017-10-16T04:12:34.624Z,0
2017-10-16T04:13:37.393Z,0
2017-10-16T04:14:39.769Z,0
2017-10-16T04:15:42.151Z,0
2017-10-16T04:16:44.537Z,0
2017-10-16T04:17:46.898Z,0
2017-10-16T04:18:49.280Z,0
2017-10-16T04:19:51.660Z,0
2017-10-16T04:20:54.039Z,0
2017-10-16T04:21:56.425Z,0
2017-10-16T04:22:59.145Z,0
2017-10-16T04:24:01.527Z,0
2017-10-16T04:25:03.910Z,0
2017-10-16T04:26:06.282Z,0
2017-10-16T04:27:08.667Z,0
2017-10-16T04:28:11.039Z,0
2017-10-16T04:29:13.416Z,0
2017-10-16T04:30:16.148Z,0
2017-10-16T04:31:18.519Z,0
2017-10-16T04:32:20.903Z,0
2017-10-16T04:33:23.629Z,0
2017-10-16T04:34:25.998Z,0
2017-10-16T04:35:28.378Z,0
2017-10-16T04:36:30.761Z,0
2017-10-16T04:37:33.137Z,0
2017-10-16T04:38:35.517Z,0
2017-10-16T04:39:38.226Z,0
2017-10-16T04:40:42.820Z,0
2017-10-16T04:41:47.289Z,0
2017-10-16T04:42:51.950Z,0
2017-10-16T04:43:55.144Z,0
2017-10-16T04:44:57.548Z,0
2017-10-16T04:46:00.007Z,0
2017-10-16T04:47:02.771Z,0
2017-10-16T04:48:05.223Z,0
2017-10-16T04:49:07.758Z,0
2017-10-16T04:50:10.169Z,0
2017-10-16T04:51:12.646Z,0
2017-10-16T04:52:15.047Z,0
2017-10-16T04:53:17.459Z,0
2017-10-16T04:54:19.891Z,0
2017-10-16T04:55:22.298Z,0
2017-10-16T04:56:24.791Z,0
2017-10-16T04:57:27.288Z,0
2017-10-16T04:58:29.797Z,0
2017-10-16T04:59:32.181Z,0
2017-10-16T05:00:34.614Z,0
2017-10-16T05:01:37.110Z,0
2017-10-16T05:02:39.479Z,0
2017-10-16T05:03:42.266Z,0
2017-10-16T05:04:44.700Z,0
2017-10-16T05:05:47.094Z,4
2017-10-16T05:06:49.533Z,0
2017-10-16T05:07:51.970Z,0
2017-10-16T05:08:54.383Z,4
2017-10-16T05:09:56.828Z,0
2017-10-16T05:10:59.244Z,4
2017-10-16T05:12:02.031Z,4
2017-10-16T05:13:04.785Z,8
2017-10-16T05:14:07.213Z,8
2017-10-16T05:15:09.719Z,12
2017-10-16T05:16:12.221Z,8
2017-10-16T05:17:14.636Z,12
2017-10-16T05:18:17.134Z,16
2017-10-16T05:19:19.577Z,20
2017-10-16T05:20:22.063Z,24
2017-10-16T05:21:24.649Z,28
2017-10-16T05:22:27.125Z,32
2017-10-16T05:23:29.623Z,36
2017-10-16T05:24:32.078Z,48
2017-10-16T05:25:34.543Z,52
2017-10-16T05:26:36.943Z,64
2017-10-16T05:27:39.468Z,68
2017-10-16T05:28:41.889Z,84
2017-10-16T05:29:44.300Z,96
2017-10-16T05:30:46.730Z,108
2017-10-16T05:31:49.209Z,124
2017-10-16T05:32:51.705Z,144
2017-10-16T05:33:54.103Z,168
2017-10-16T05:34:56.929Z,188
2017-10-16T05:35:59.315Z,212
2017-10-16T05:37:01.690Z,232
2017-10-16T05:38:04.188Z,264
2017-10-16T05:39:06.592Z,292
2017-10-16T05:40:09.127Z,320
2017-10-16T05:41:11.650Z,356
2017-10-16T05:42:14.071Z,388
2017-10-16T05:43:16.482Z,424
2017-10-16T05:44:18.901Z,460
2017-10-16T05:45:21.341Z,500
2017-10-16T05:46:23.795Z,540
2017-10-16T05:47:26.181Z,584
2017-10-16T05:48:28.600Z,628
2017-10-16T05:49:31.145Z,676
2017-10-16T05:50:33.589Z,728
2017-10-16T05:51:35.955Z,772
2017-10-16T05:52:38.399Z,824
2017-10-16T05:53:40.776Z,876
2017-10-16T05:54:43.169Z,932
2017-10-16T05:55:45.650Z,996
2017-10-16T05:56:48.041Z,1060
2017-10-16T05:57:50.447Z,1124
2017-10-16T05:58:52.860Z,1192
2017-10-16T05:59:55.243Z,1260
2017-10-16T06:00:57.650Z,1328
2017-10-16T06:02:00.205Z,1392
2017-10-16T06:03:02.695Z,1460
2017-10-16T06:04:05.122Z,1524
2017-10-16T06:05:07.873Z,1592
2017-10-16T06:06:10.275Z,1660
2017-10-16T06:07:12.686Z,1732
2017-10-16T06:08:15.169Z,1804
2017-10-16T06:09:17.583Z,1880
2017-10-16T06:10:20.036Z,1956
2017-10-16T06:11:22.415Z,2036
2017-10-16T06:12:24.928Z,2116
2017-10-16T06:13:27.410Z,2188
2017-10-16T06:14:29.874Z,2264
2017-10-16T06:15:32.628Z,2344
2017-10-16T06:16:35.398Z,2416
2017-10-16T06:17:37.792Z,2480
2017-10-16T06:18:40.196Z,2560
2017-10-16T06:19:42.620Z,2640
2017-10-16T06:20:44.986Z,2716
2017-10-16T06:21:47.749Z,2776
2017-10-16T06:22:50.523Z,2848
2017-10-16T06:23:52.927Z,2940
2017-10-16T06:24:55.403Z,3032
2017-10-16T06:25:57.874Z,3124
2017-10-16T06:27:00.272Z,3204
2017-10-16T06:28:02.688Z,3284
2017-10-16T06:29:05.139Z,3372
2017-10-16T06:30:07.639Z,3476
2017-10-16T06:31:10.131Z,3556
2017-10-16T06:32:12.593Z,3640
2017-10-16T06:33:15.144Z,3736
2017-10-16T06:34:17.525Z,3848
2017-10-16T06:35:20.273Z,3964
2017-10-16T06:36:22.821Z,4076
2017-10-16T06:37:25.347Z,4192
2017-10-16T06:38:27.720Z,4300
2017-10-16T06:39:30.231Z,4388
2017-10-16T06:40:32.736Z,4500
2017-10-16T06:41:35.210Z,4616
2017-10-16T06:42:37.589Z,4728
2017-10-16T06:43:39.964Z,4812
2017-10-16T06:44:42.401Z,4900
2017-10-16T06:45:44.867Z,4984
2017-10-16T06:46:47.298Z,5068
2017-10-16T06:47:49.691Z,5136
2017-10-16T06:48:52.100Z,5220
2017-10-16T06:49:54.540Z,5316
2017-10-16T06:50:57.296Z,5392
2017-10-16T06:51:59.719Z,5468
2017-10-16T06:53:02.141Z,5564
2017-10-16T06:54:04.921Z,5680
2017-10-16T06:55:07.343Z,5788
2017-10-16T06:56:10.187Z,5900
2017-10-16T06:57:12.652Z,5992
2017-10-16T06:58:15.081Z,6064
2017-10-16T06:59:17.465Z,6156
2017-10-16T07:00:20.241Z,6252
2017-10-16T07:01:22.629Z,8444
2017-10-16T07:02:25.055Z,14604
2017-10-16T07:03:27.546Z,17696
2017-10-16T07:04:30.023Z,18784
2017-10-16T07:05:32.544Z,20448
2017-10-16T07:06:35.022Z,20736
2017-10-16T07:07:37.842Z,20416
2017-10-16T07:08:40.217Z,22560
2017-10-16T07:09:42.610Z,21344
2017-10-16T07:10:44.979Z,22752
2017-10-16T07:11:47.361Z,23104
2017-10-16T07:12:49.737Z,23360
2017-10-16T07:13:52.114Z,22816
2017-10-16T07:14:54.488Z,23744
2017-10-16T07:15:56.871Z,23328
2017-10-16T07:16:59.600Z,22272
2017-10-16T07:18:01.991Z,23904
2017-10-16T07:19:04.357Z,27360
2017-10-16T07:20:06.744Z,30720
2017-10-16T07:21:09.111Z,33056
2017-10-16T07:22:11.495Z,32288
2017-10-16T07:23:13.873Z,30624
2017-10-16T07:24:16.250Z,31360
2017-10-16T07:25:18.632Z,31040
2017-10-16T07:26:21.024Z,34688
2017-10-16T07:27:23.750Z,39200
2017-10-16T07:28:26.120Z,40576
2017-10-16T07:29:28.504Z,41408
2017-10-16T07:30:30.894Z,39200
2017-10-16T07:31:33.278Z,38016
2017-10-16T07:32:35.658Z,48544
2017-10-16T07:33:38.047Z,54016
2017-10-16T07:34:40.432Z,45856
2017-10-16T07:35:42.823Z,30560
2017-10-16T07:36:45.211Z,34752
2017-10-16T07:37:47.577Z,43712
2017-10-16T07:38:49.961Z,40800
2017-10-16T07:39:52.345Z,39680
2017-10-16T07:40:54.721Z,41888
2017-10-16T07:41:57.112Z,42528
2017-10-16T07:42:59.479Z,43744
2017-10-16T07:44:01.861Z,45728
2017-10-16T07:45:04.263Z,49152
2017-10-16T07:46:06.637Z,50208
2017-10-16T07:47:09.022Z,47168
2017-10-16T07:48:11.426Z,45408
2017-10-16T07:49:13.790Z,45408
2017-10-16T07:50:16.178Z,46336
2017-10-16T07:51:18.567Z,52736
2017-10-16T07:52:20.939Z,51872
2017-10-16T07:53:23.338Z,51072
2017-10-16T07:54:25.734Z,47008
2017-10-16T07:55:28.114Z,41312
2017-10-16T07:56:30.503Z,37248
2017-10-16T07:57:32.875Z,38016
2017-10-16T07:58:35.267Z,36480
2017-10-16T07:59:37.648Z,34208
2017-10-16T08:00:40.039Z,33536
2017-10-16T08:01:42.417Z,37696
2017-10-16T08:02:44.800Z,43296
2017-10-16T08:03:47.205Z,43744
2017-10-16T08:04:49.586Z,41920
2017-10-16T08:05:51.973Z,40864
2017-10-16T08:06:54.352Z,42688
2017-10-16T08:07:56.737Z,45248
2017-10-16T08:08:59.820Z,47808
2017-10-16T08:10:02.213Z,45184
2017-10-16T08:11:04.587Z,41216
2017-10-16T08:12:07.321Z,40032
2017-10-16T08:13:09.709Z,40192
2017-10-16T08:14:12.096Z,40960
2017-10-16T08:15:14.484Z,38752
2017-10-16T08:16:17.217Z,37536
2017-10-16T08:17:19.604Z,40512
2017-10-16T08:18:21.999Z,44000
2017-10-16T08:19:24.379Z,43712
2017-10-16T08:20:26.768Z,43712
2017-10-16T08:21:29.148Z,45664
2017-10-16T08:22:31.893Z,42464
2017-10-16T08:23:34.280Z,42368
2017-10-16T08:24:37.023Z,44064
2017-10-16T08:25:39.393Z,43904
2017-10-16T08:26:41.780Z,42688
2017-10-16T08:27:44.166Z,45472
2017-10-16T08:28:46.560Z,47392
2017-10-16T08:29:48.940Z,43648
2017-10-16T08:30:51.333Z,43808
2017-10-16T08:31:53.724Z,45920
2017-10-16T08:32:56.121Z,45376
2017-10-16T08:33:58.503Z,43488
2017-10-16T08:35:00.892Z,43456
2017-10-16T08:36:03.988Z,42048
2017-10-16T08:37:06.384Z,40960
2017-10-16T08:38:08.771Z,42656
2017-10-16T08:39:11.161Z,46080
2017-10-16T08:40:13.553Z,46752
2017-10-16T08:41:15.944Z,46848
2017-10-16T08:42:18.322Z,46688
2017-10-16T08:43:20.716Z,45696
2017-10-16T08:44:23.100Z,45344
2017-10-16T08:45:25.494Z,45248
2017-10-16T08:46:27.882Z,45568
2017-10-16T08:47:30.271Z,46464
2017-10-16T08:48:32.657Z,48576
2017-10-16T08:49:35.049Z,52480
2017-10-16T08:50:37.427Z,55104
2017-10-16T08:51:40.188Z,56864
2017-10-16T08:52:42.567Z,54848
2017-10-16T08:53:45.307Z,52544
2017-10-16T08:54:47.702Z,50528
2017-10-16T08:55:50.088Z,48896
2017-10-16T08:56:52.479Z,51584
2017-10-16T08:57:54.871Z,53120
2017-10-16T08:58:57.262Z,52320
2017-10-16T09:00:00.013Z,48576
2017-10-16T09:01:02.741Z,47872
2017-10-16T09:02:05.131Z,52672
2017-10-16T09:03:07.904Z,57728
2017-10-16T09:04:10.308Z,58656
2017-10-16T09:05:12.701Z,59040
2017-10-16T09:06:15.094Z,57664
2017-10-16T09:07:17.499Z,58048
2017-10-16T09:08:19.903Z,59744
2017-10-16T09:09:22.298Z,58400
2017-10-16T09:10:25.052Z,56160
2017-10-16T09:11:27.449Z,59936
2017-10-16T09:12:29.840Z,64768
2017-10-16T09:13:32.240Z,65280
2017-10-16T09:14:34.643Z,65216
2017-10-16T09:15:37.379Z,62496
2017-10-16T09:16:39.779Z,63584
2017-10-16T09:17:42.176Z,64352
2017-10-16T09:18:44.578Z,64096
2017-10-16T09:19:46.969Z,60416
2017-10-16T09:20:49.369Z,56800
2017-10-16T09:21:51.761Z,55104
2017-10-16T09:22:54.169Z,58336
2017-10-16T09:23:56.565Z,61504
2017-10-16T09:24:59.313Z,61184
2017-10-16T09:26:02.055Z,58080
2017-10-16T09:27:04.472Z,55648
2017-10-16T09:28:06.875Z,55104
2017-10-16T09:29:09.271Z,56704
2017-10-16T09:30:12.016Z,57344
2017-10-16T09:31:14.768Z,56288
2017-10-16T09:32:17.583Z,55488
2017-10-16T09:33:19.927Z,53888
2017-10-16T09:34:22.314Z,53792
2017-10-16T09:35:24.714Z,52896
2017-10-16T09:36:27.118Z,53344
2017-10-16T09:37:29.512Z,57344
2017-10-16T09:38:31.904Z,59104
2017-10-16T09:39:34.302Z,62272
2017-10-16T09:40:37.039Z,63776
2017-10-16T09:41:39.793Z,66752
2017-10-16T09:42:42.191Z,71584
2017-10-16T09:43:44.576Z,72800
2017-10-16T09:44:47.312Z,69856
2017-10-16T09:45:49.715Z,64192
2017-10-16T09:46:52.106Z,62816
2017-10-16T09:47:54.516Z,62848
2017-10-16T09:48:56.892Z,65344
2017-10-16T09:49:59.288Z,64928
2017-10-16T09:51:01.687Z,59712
2017-10-16T09:52:04.079Z,61056
2017-10-16T09:53:06.482Z,65088
2017-10-16T09:54:08.877Z,63744
2017-10-16T09:55:11.268Z,63200
2017-10-16T09:56:13.671Z,62464
2017-10-16T09:57:16.061Z,64160
2017-10-16T09:58:18.462Z,64576
2017-10-16T09:59:21.198Z,67776
2017-10-16T10:00:23.593Z,70720
2017-10-16T10:01:25.986Z,71232
2017-10-16T10:02:28.377Z,72416
2017-10-16T10:03:30.774Z,72384
2017-10-16T10:04:33.555Z,70560
2017-10-16T10:05:35.961Z,68928
2017-10-16T10:06:38.720Z,68416
2017-10-16T10:07:41.108Z,66432
2017-10-16T10:08:43.508Z,64352
2017-10-16T10:09:45.899Z,66432
2017-10-16T10:10:48.659Z,61632
2017-10-16T10:11:51.053Z,55712
2017-10-16T10:12:53.456Z,57440
2017-10-16T10:13:56.098Z,60704
2017-10-16T10:14:58.510Z,60480
2017-10-16T10:16:00.914Z,62880
2017-10-16T10:17:03.294Z,66496
2017-10-16T10:18:05.699Z,66656
2017-10-16T10:19:08.093Z,67200
2017-10-16T10:20:10.496Z,64928
2017-10-16T10:21:12.894Z,60864
2017-10-16T10:22:15.293Z,59552
2017-10-16T10:23:18.037Z,62592
2017-10-16T10:24:20.444Z,67072
2017-10-16T10:25:23.182Z,66048
2017-10-16T10:26:25.577Z,62976
2017-10-16T10:27:27.972Z,61408
2017-10-16T10:28:30.378Z,63328
2017-10-16T10:29:32.758Z,64320
2017-10-16T10:30:35.156Z,65312
2017-10-16T10:31:37.559Z,67552
2017-10-16T10:32:39.951Z,65600
2017-10-16T10:33:42.351Z,62784
2017-10-16T10:34:44.742Z,63808
2017-10-16T10:35:47.501Z,64256
2017-10-16T10:36:49.899Z,62560
2017-10-16T10:37:52.302Z,64608
2017-10-16T10:38:54.686Z,67552
2017-10-16T10:39:57.098Z,68384
2017-10-16T10:40:59.497Z,69696
2017-10-16T10:42:01.889Z,67680
2017-10-16T10:43:04.287Z,66080
2017-10-16T10:44:06.683Z,65664
2017-10-16T10:45:09.094Z,65376
2017-10-16T10:46:11.487Z,65312
2017-10-16T10:47:13.893Z,69984
2017-10-16T10:48:16.281Z,71232
2017-10-16T10:49:18.690Z,67552
2017-10-16T10:50:21.084Z,64576
2017-10-16T10:51:23.483Z,68288
2017-10-16T10:52:25.884Z,72352
2017-10-16T10:53:28.279Z,73728
2017-10-16T10:54:30.666Z,73440
2017-10-16T10:55:33.074Z,72480
2017-10-16T10:56:35.475Z,73664
2017-10-16T10:57:37.861Z,77184
2017-10-16T10:58:40.271Z,80256
2017-10-16T10:59:42.669Z,76320
2017-10-16T11:00:45.068Z,71552
2017-10-16T11:01:47.471Z,68704
2017-10-16T11:02:49.859Z,67008
2017-10-16T11:03:52.256Z,65792
2017-10-16T11:04:55.021Z,64384
2017-10-16T11:05:57.408Z,64672
2017-10-16T11:06:59.806Z,65120
2017-10-16T11:08:02.213Z,64768
2017-10-16T11:09:04.606Z,66496
2017-10-16T11:10:07.018Z,70496
2017-10-16T11:11:09.405Z,70304
2017-10-16T11:12:11.796Z,70048
2017-10-16T11:13:14.193Z,72384
2017-10-16T11:14:16.606Z,76992
2017-10-16T11:15:19.371Z,81568
2017-10-16T11:16:21.776Z,83488
2017-10-16T11:17:24.885Z,83232
2017-10-16T11:18:27.286Z,81024
2017-10-16T11:19:29.694Z,78048
2017-10-16T11:20:32.096Z,74144
2017-10-16T11:21:34.483Z,74272
2017-10-16T11:22:36.889Z,75296
2017-10-16T11:23:39.282Z,80768
2017-10-16T11:24:41.684Z,79872
2017-10-16T11:25:44.076Z,76864
2017-10-16T11:26:46.482Z,77536
2017-10-16T11:27:48.882Z,78656
2017-10-16T11:28:51.289Z,80064
2017-10-16T11:29:53.690Z,80864
2017-10-16T11:30:56.098Z,74400
2017-10-16T11:31:58.498Z,69024
2017-10-16T11:33:00.892Z,73184
2017-10-16T11:34:03.293Z,84320
2017-10-16T11:35:05.693Z,88576
2017-10-16T11:36:08.090Z,80000
2017-10-16T11:37:10.498Z,74496
2017-10-16T11:38:12.885Z,76096
2017-10-16T11:39:15.661Z,85632
2017-10-16T11:40:18.045Z,88832
2017-10-16T11:41:20.451Z,77600
2017-10-16T11:42:22.852Z,69024
2017-10-16T11:43:25.258Z,73408
2017-10-16T11:44:27.658Z,83584
2017-10-16T11:45:30.060Z,81696
2017-10-16T11:46:32.454Z,78752
2017-10-16T11:47:34.864Z,77632
2017-10-16T11:48:37.270Z,76320
2017-10-16T11:49:39.659Z,74176
2017-10-16T11:50:42.062Z,71648
2017-10-16T11:51:44.458Z,68352
2017-10-16T11:52:46.862Z,62720
2017-10-16T11:53:49.266Z,64384
2017-10-16T11:54:51.660Z,63616
2017-10-16T11:55:54.054Z,63008
2017-10-16T11:56:56.453Z,62976
2017-10-16T11:57:58.851Z,61536
2017-10-16T11:59:01.254Z,64096
2017-10-16T12:00:03.652Z,63648
2017-10-16T12:01:06.051Z,51072
2017-10-16T12:02:08.447Z,48320
2017-10-16T12:03:10.855Z,56480
2017-10-16T12:04:13.252Z,42400
2017-10-16T12:05:15.656Z,32992
2017-10-16T12:06:18.057Z,30624
2017-10-16T12:07:20.459Z,48704
2017-10-16T12:08:22.864Z,54784
2017-10-16T12:09:25.611Z,47680
2017-10-16T12:10:28.016Z,47200
2017-10-16T12:11:30.423Z,50464
2017-10-16T12:12:32.822Z,57152
2017-10-16T12:13:35.219Z,60960
2017-10-16T12:14:37.620Z,58016
2017-10-16T12:15:40.725Z,54656
2017-10-16T12:16:43.465Z,48928
2017-10-16T12:17:45.865Z,57024
2017-10-16T12:18:48.260Z,55328
2017-10-16T12:19:50.649Z,53888
2017-10-16T12:20:53.062Z,55584
2017-10-16T12:21:55.464Z,56864
2017-10-16T12:22:57.858Z,53184
2017-10-16T12:24:00.275Z,50240
2017-10-16T12:25:03.028Z,51232
2017-10-16T12:26:05.432Z,52224
2017-10-16T12:27:07.822Z,52512
2017-10-16T12:28:10.234Z,53152
2017-10-16T12:29:12.628Z,55456
2017-10-16T12:30:15.028Z,58624
2017-10-16T12:31:17.424Z,60032
2017-10-16T12:32:19.818Z,56704
2017-10-16T12:33:22.222Z,53504
2017-10-16T12:34:24.633Z,53152
2017-10-16T12:35:27.019Z,52864
2017-10-16T12:36:29.418Z,50368
2017-10-16T12:37:31.830Z,48544
2017-10-16T12:38:34.230Z,51904
2017-10-16T12:39:36.640Z,53792
2017-10-16T12:40:39.039Z,51392
2017-10-16T12:41:41.438Z,47040
2017-10-16T12:42:43.844Z,48832
2017-10-16T12:43:46.245Z,52256
2017-10-16T12:44:48.634Z,51264
2017-10-16T12:45:51.037Z,45568
2017-10-16T12:46:53.420Z,46944
2017-10-16T12:47:56.174Z,46080
2017-10-16T12:48:58.566Z,45600
2017-10-16T12:50:00.964Z,43072
2017-10-16T12:51:03.364Z,43904
2017-10-16T12:52:05.765Z,45312
2017-10-16T12:53:08.170Z,39936
2017-10-16T12:54:10.565Z,39200
2017-10-16T12:55:12.967Z,39424
2017-10-16T12:56:15.357Z,41344
2017-10-16T12:57:17.754Z,42976
2017-10-16T12:58:20.145Z,43680
2017-10-16T12:59:22.892Z,46176
2017-10-16T13:00:25.279Z,40608
2017-10-16T13:01:27.685Z,33696
2017-10-16T13:02:30.083Z,35328
2017-10-16T13:03:32.480Z,37408
2017-10-16T13:04:34.875Z,34944
2017-10-16T13:05:37.279Z,29760
2017-10-16T13:06:39.675Z,25696
2017-10-16T13:07:42.440Z,41376
2017-10-16T13:08:44.839Z,37600
2017-10-16T13:09:47.584Z,35232
2017-10-16T13:10:49.999Z,37632
2017-10-16T13:11:52.390Z,37344
2017-10-16T13:12:55.148Z,35424
2017-10-16T13:13:57.550Z,32864
2017-10-16T13:15:00.051Z,34112
2017-10-16T13:16:02.445Z,35296
2017-10-16T13:17:05.204Z,36576
2017-10-16T13:18:07.592Z,33408
2017-10-16T13:19:09.994Z,35392
2017-10-16T13:20:12.396Z,31904
2017-10-16T13:21:14.795Z,36960
2017-10-16T13:22:17.192Z,32896
2017-10-16T13:23:19.587Z,24480
2017-10-16T13:24:21.987Z,22208
2017-10-16T13:25:24.368Z,24032
2017-10-16T13:26:26.759Z,20512
2017-10-16T13:27:29.165Z,21856
2017-10-16T13:28:31.561Z,20992
2017-10-16T13:29:33.964Z,22016
2017-10-16T13:30:36.363Z,18912
2017-10-16T13:31:38.757Z,20096
2017-10-16T13:32:41.163Z,32448
2017-10-16T13:33:43.563Z,29728
2017-10-16T13:34:45.954Z,24704
2017-10-16T13:35:48.699Z,23776
2017-10-16T13:36:51.089Z,24576
2017-10-16T13:37:53.479Z,28288
2017-10-16T13:38:56.236Z,25088
2017-10-16T13:39:58.630Z,23776
2017-10-16T13:41:01.034Z,23680
2017-10-16T13:42:03.791Z,21696
2017-10-16T13:43:06.544Z,34112
2017-10-16T13:44:08.943Z,31136
2017-10-16T13:45:11.346Z,32352
2017-10-16T13:46:13.732Z,27488
2017-10-16T13:47:16.135Z,15380
2017-10-16T13:48:18.529Z,22336
2017-10-16T13:49:20.929Z,29248
2017-10-16T13:50:23.312Z,31328
2017-10-16T13:51:25.717Z,28576
2017-10-16T13:52:28.126Z,29760
2017-10-16T13:53:30.504Z,26880
2017-10-16T13:54:32.903Z,24288
2017-10-16T13:55:36.025Z,22176
2017-10-16T13:56:38.419Z,21504
2017-10-16T13:57:40.816Z,20448
2017-10-16T13:58:43.215Z,16812
2017-10-16T13:59:45.607Z,17756
2017-10-16T14:00:48.013Z,18080
2017-10-16T14:01:50.406Z,18224
2017-10-16T14:02:52.789Z,16764
2017-10-16T14:03:55.184Z,14056
2017-10-16T14:04:57.581Z,13072
2017-10-16T14:05:59.974Z,13232
2017-10-16T14:07:02.736Z,13268
2017-10-16T14:08:05.127Z,15684
2017-10-16T14:09:07.523Z,16688
2017-10-16T14:10:09.921Z,14080